EmailTwitter


Observations de surface / Québec / CYUL (71627)

Régions: Québec | Canada | États-Unis | Europe | France | UK | Ailleurs
Station
Affichage
Infos & localisation pour CYUL (71627) | Aide pour décoder les METARs

Observations prises le 2018-06-18 à 21H00 UTC à MONTREAL INTL A, QB (CYUL)

Etat du ciel: couvert.

Obstacle(s) à la visibilité: averses dans les environs.

Température: 28.0 Celsius

Point de rosée: 22.0 Celsius

Humidité relative: 70%

Indice Humidex: 37.

Vents: Ouest à 24 km/h ou 13 noeuds.

Rafale du vent: 39 km/h ou 21 noeuds.

Pression au niveau moyen de la mer: 100.24 kilopascals.

Calage altimétrique: 100.24 kilopascals ou 29.60 pouces de mercure.

Visibilité horizontale: 15.00 milles terrestres ou 24.00 kilomètres.

Hauteur du plafond: 2438 mètres ( 8000 pieds ).

Observation METAR:

CYUL 182100Z 26013G21KT 15SM VCSH FEW030TCU BKN080 OVC150 28/22 A2960 RMK

TCU1AC6AC1 TCU S-SW SLP024 DENSITY ALT 2100FT=